Time;durP1;ratioP1;P1;durP2;ratioP2;P2;SDS_P1;SDS_P2;PMS_P1;PMS_P2;Temp;Humidity;BMP_temperature;BMP_pressure;BME280_temperature;BME280_humidity;BME280_pressure;Samples;Min_cycle;Max_cycle;Signal;HPM_P1;HPM_P2
2021/05/26 05:37:03;;;;;;;6.03;2.20;;;;;;;11.83;66.39;98376.98;1847603;76;22453;-67
2021/05/26 05:39:30;;;;;;;4.47;1.95;;;;;;;11.87;66.24;98376.65;1818060;79;20893;-69
2021/05/26 05:41:57;;;;;;;4.80;2.00;;;;;;;12.01;66.54;98380.78;1818132;78;21123;-67
2021/05/26 05:44:25;;;;;;;3.92;1.90;;;;;;;12.17;65.65;98382.96;1808925;79;21402;-69
2021/05/26 05:46:52;;;;;;;3.17;2.08;;;;;;;12.33;64.73;98373.58;1790154;79;20913;-66
2021/05/26 05:49:19;;;;;;;4.12;1.90;;;;;;;12.49;64.25;98376.82;1803393;79;20905;-70
2021/05/26 05:51:46;;;;;;;2.75;1.67;;;;;;;12.61;63.92;98387.11;1785910;80;20914;-68
2021/05/26 05:54:13;;;;;;;3.55;1.90;;;;;;;12.72;63.58;98384.50;1785997;80;21391;-70
2021/05/26 05:56:40;;;;;;;4.03;2.00;;;;;;;12.83;63.96;98389.98;1785704;79;20949;-67
2021/05/26 05:59:08;;;;;;;8.65;2.30;;;;;;;12.93;62.39;98397.88;1813590;79;21507;-66
2021/05/26 06:01:36;;;;;;;3.42;1.85;;;;;;;12.99;61.63;98394.00;1818049;79;21459;-70
2021/05/26 06:04:04;;;;;;;5.75;2.20;;;;;;;13.02;62.39;98384.77;1816462;79;20870;-68
2021/05/26 06:06:31;;;;;;;7.72;2.22;;;;;;;13.11;61.78;98393.01;1810288;79;21051;-67
2021/05/26 06:08:58;;;;;;;5.08;2.45;;;;;;;13.16;61.11;98402.33;1822540;77;21052;-68
2021/05/26 06:11:26;;;;;;;4.60;2.35;;;;;;;13.14;61.06;98399.15;1785255;79;21076;-68
2021/05/26 06:13:53;;;;;;;7.37;2.27;;;;;;;13.11;61.31;98404.30;1799464;77;21101;-67
2021/05/26 06:16:20;;;;;;;5.85;1.90;;;;;;;13.11;60.84;98409.14;1777744;79;21094;-69
2021/05/26 06:18:48;;;;;;;4.10;2.02;;;;;;;13.08;60.48;98411.08;1750319;82;21095;-67
2021/05/26 06:21:17;;;;;;;6.35;2.00;;;;;;;13.07;60.08;98412.72;1750002;81;21017;-66
2021/05/26 06:23:44;;;;;;;4.85;2.20;;;;;;;13.10;59.65;98404.84;1723017;82;20997;-68
2021/05/26 06:26:11;;;;;;;9.03;2.20;;;;;;;13.18;60.29;98410.90;1750313;81;21144;-68
2021/05/26 06:28:38;;;;;;;9.15;2.35;;;;;;;13.26;60.42;98408.85;1750382;82;21081;-68
2021/05/26 06:31:05;;;;;;;3.75;2.08;;;;;;;13.32;59.46;98409.02;1750655;82;21582;-67
2021/05/26 06:33:32;;;;;;;3.30;2.00;;;;;;;13.35;58.44;98416.52;1751167;82;21152;-66
2021/05/26 06:35:59;;;;;;;4.90;2.50;;;;;;;13.32;58.44;98408.22;1746652;82;21057;-67
2021/05/26 06:38:27;;;;;;;5.10;1.90;;;;;;;13.29;59.28;98416.34;1808831;77;21520;-68
2021/05/26 06:40:54;;;;;;;3.17;1.82;;;;;;;13.33;59.02;98414.64;1810062;79;21013;-70
2021/05/26 06:43:26;;;;;;;4.70;2.35;;;;;;;13.43;58.95;98410.42;1741914;82;21492;-69
2021/05/26 06:45:53;;;;;;;4.10;1.95;;;;;;;13.52;59.38;98411.31;1741863;82;20907;-66
2021/05/26 06:48:24;;;;;;;5.78;2.27;;;;;;;13.67;59.35;98412.91;1740399;82;21018;-66
2021/05/26 06:50:52;;;;;;;2.58;1.90;;;;;;;13.79;58.98;98420.48;1807370;77;21093;-68
2021/05/26 06:53:19;;;;;;;4.97;2.10;;;;;;;13.86;57.63;98418.19;1771165;81;20927;-67
2021/05/26 06:55:47;;;;;;;3.60;1.65;;;;;;;13.89;57.39;98423.78;1739634;82;21600;-68
2021/05/26 06:58:14;;;;;;;5.72;2.00;;;;;;;13.95;57.31;98432.53;1809116;79;21017;-70
2021/05/26 07:00:41;;;;;;;2.95;2.08;;;;;;;14.03;56.93;98438.58;1797344;79;21070;-66
2021/05/26 07:03:09;;;;;;;4.33;2.20;;;;;;;14.05;56.94;98433.68;1795867;80;21090;-65
2021/05/26 07:05:37;;;;;;;3.20;2.00;;;;;;;14.08;56.50;98426.34;1796414;79;21433;-68
2021/05/26 07:08:07;;;;;;;5.50;2.27;;;;;;;14.11;56.61;98425.18;1796291;80;21096;-65
2021/05/26 07:10:43;;;;;;;6.25;2.08;;;;;;;14.15;55.29;98437.51;1796096;79;21496;-67
2021/05/26 07:13:11;;;;;;;4.22;2.42;;;;;;;14.18;54.72;98439.03;1812602;77;20908;-68
2021/05/26 07:15:39;;;;;;;4.75;2.33;;;;;;;14.18;55.77;98441.73;1813502;79;21538;-68
2021/05/26 07:18:09;;;;;;;5.00;2.22;;;;;;;14.23;55.82;98442.16;1813735;79;21015;-69
2021/05/26 07:20:37;;;;;;;5.53;2.30;;;;;;;14.35;56.67;98442.47;1814917;79;21074;-66
2021/05/26 07:23:04;;;;;;;3.20;1.90;;;;;;;14.46;56.21;98433.63;1814869;79;20933;-68
2021/05/26 07:25:31;;;;;;;5.10;2.30;;;;;;;14.52;55.66;98437.23;1815089;77;21415;-69
2021/05/26 07:27:58;;;;;;;2.70;2.08;;;;;;;14.57;54.49;98449.26;1814405;79;21095;-65
2021/05/26 07:30:25;;;;;;;5.80;2.20;;;;;;;14.59;53.82;98441.66;1815134;79;21036;-67
2021/05/26 07:32:53;;;;;;;3.42;1.90;;;;;;;14.64;54.94;98440.20;1814857;77;21475;-61
2021/05/26 07:35:20;;;;;;;6.45;1.90;;;;;;;14.76;55.79;98428.86;1814928;79;20861;-64
2021/05/26 07:37:47;;;;;;;6.80;1.98;;;;;;;14.93;56.32;98428.41;1840246;78;20882;-68
2021/05/26 07:40:16;;;;;;;4.12;2.10;;;;;;;15.06;54.26;98431.61;1760550;81;21532;-67
2021/05/26 07:42:43;;;;;;;5.45;2.00;;;;;;;15.08;52.74;98428.05;1842197;77;20898;-65
2021/05/26 07:45:12;;;;;;;5.12;2.20;;;;;;;15.13;52.64;98433.86;1841584;78;20997;-65
2021/05/26 07:47:39;;;;;;;2.58;1.95;;;;;;;15.14;53.13;98425.22;1729228;81;21555;-66
2021/05/26 07:50:08;;;;;;;3.60;1.77;;;;;;;15.18;52.58;98423.48;1749791;80;21152;-68
2021/05/26 07:52:35;;;;;;;3.42;1.60;;;;;;;15.26;51.76;98427.57;1721937;82;20994;-65
2021/05/26 07:55:04;;;;;;;2.72;1.60;;;;;;;15.33;51.83;98431.97;1721922;82;20978;-65
2021/05/26 07:57:31;;;;;;;5.20;2.17;;;;;;;15.37;51.07;98432.16;1709641;82;21122;-67
2021/05/26 08:00:00;;;;;;;4.28;1.95;;;;;;;15.31;51.13;98433.42;1771324;80;20917;-67
2021/05/26 08:02:27;;;;;;;4.42;1.87;;;;;;;15.26;51.41;98429.50;1771477;81;21561;-65
2021/05/26 08:04:55;;;;;;;5.55;1.92;;;;;;;15.29;51.70;98428.86;1771365;81;20950;-67
2021/05/26 08:07:21;;;;;;;2.83;1.67;;;;;;;15.34;51.02;98424.13;1782845;79;20871;-69
2021/05/26 08:09:50;;;;;;;2.92;1.62;;;;;;;15.40;51.73;98426.16;1803069;79;20890;-69
2021/05/26 08:12:17;;;;;;;6.67;2.37;;;;;;;15.51;50.33;98429.65;1802478;79;21601;-65
2021/05/26 08:14:45;;;;;;;6.33;1.85;;;;;;;15.60;50.71;98426.97;1801182;78;21610;-68
2021/05/26 08:17:12;;;;;;;15.13;2.15;;;;;;;15.69;50.68;98430.49;1786049;79;20982;-72
2021/05/26 08:19:40;;;;;;;4.03;1.62;;;;;;;15.81;49.50;98436.10;1779482;79;20913;-70
2021/05/26 08:22:07;;;;;;;4.50;1.75;;;;;;;15.89;49.12;98427.23;1801921;79;21104;-67
2021/05/26 08:24:36;;;;;;;3.50;1.70;;;;;;;15.93;48.87;98422.80;1801641;79;20993;-67
2021/05/26 08:27:09;;;;;;;6.22;1.80;;;;;;;15.95;48.83;98425.97;1802178;78;21491;-67
2021/05/26 08:29:38;;;;;;;2.42;1.40;;;;;;;15.98;48.04;98429.41;1803434;79;21455;-70
2021/05/26 08:32:06;;;;;;;3.65;1.60;;;;;;;15.98;47.88;98430.75;1796339;79;21595;-66
2021/05/26 08:34:34;;;;;;;4.00;1.52;;;;;;;16.05;46.95;98433.79;1796321;78;21641;-70
2021/05/26 08:37:04;;;;;;;2.35;1.75;;;;;;;16.07;47.21;98436.97;1749252;80;21441;-69
2021/05/26 08:39:34;;;;;;;6.45;1.60;;;;;;;16.09;46.60;98432.05;1759369;81;21399;-69
2021/05/26 08:42:00;;;;;;;8.85;2.20;;;;;;;16.08;46.38;98431.81;1789098;77;21013;-67
2021/05/26 08:44:26;;;;;;;2.83;1.50;;;;;;;16.06;47.70;98431.31;1786810;79;21085;-67
2021/05/26 08:46:53;;;;;;;2.70;1.65;;;;;;;16.11;47.93;98441.97;1795832;79;21124;-68
2021/05/26 08:49:22;;;;;;;3.00;1.50;;;;;;;16.22;47.64;98431.13;1801863;77;21106;-68
2021/05/26 08:51:49;;;;;;;3.25;1.55;;;;;;;16.36;47.13;98428.27;1800389;79;21471;-68
2021/05/26 08:54:17;;;;;;;5.50;1.77;;;;;;;16.53;46.87;98426.17;1804826;79;21515;-70
2021/05/26 08:56:44;;;;;;;2.02;1.47;;;;;;;16.67;46.56;98425.45;1793342;79;21523;-66
2021/05/26 08:59:17;;;;;;;8.68;1.77;;;;;;;16.76;46.45;98430.30;1757329;81;21083;-67
2021/05/26 09:01:51;;;;;;;3.42;1.70;;;;;;;16.85;46.13;98414.84;1779792;80;20905;-66
2021/05/26 09:04:31;;;;;;;3.85;1.20;;;;;;;16.92;45.99;98412.45;1789661;79;21037;-67
2021/05/26 09:07:15;;;;;;;5.10;1.50;;;;;;;16.98;46.18;98408.47;1811891;79;20930;-68
2021/05/26 09:10:00;;;;;;;1.57;1.20;;;;;;;17.07;46.01;98406.54;1812006;78;21575;-68
2021/05/26 09:12:41;;;;;;;3.52;1.30;;;;;;;17.17;45.79;98412.94;1811890;79;21077;-67
2021/05/26 09:15:20;;;;;;;3.92;1.50;;;;;;;17.28;44.46;98400.66;1811762;79;21428;-64
2021/05/26 09:17:51;;;;;;;3.67;1.57;;;;;;;17.38;44.65;98413.83;1811889;79;21547;-66
2021/05/26 09:20:28;;;;;;;5.10;1.50;;;;;;;17.51;44.12;98410.16;1811975;79;20942;-65
2021/05/26 09:23:11;;;;;;;4.03;1.20;;;;;;;17.62;44.58;98414.09;1811998;79;20981;-66
2021/05/26 09:25:50;;;;;;;8.70;1.45;;;;;;;17.60;42.54;98413.63;1812080;79;21073;-68
2021/05/26 09:28:27;;;;;;;4.30;1.60;;;;;;;17.45;44.71;98406.00;1811636;79;21056;-64
2021/05/26 09:31:06;;;;;;;4.78;1.32;;;;;;;17.52;44.11;98400.91;1811084;78;21046;-67
2021/05/26 09:33:46;;;;;;;3.62;1.50;;;;;;;17.62;43.42;98404.61;1810550;79;21049;-67
2021/05/26 09:36:24;;;;;;;3.98;1.30;;;;;;;17.60;42.44;98400.08;1809170;79;21075;-67
2021/05/26 09:38:59;;;;;;;2.90;1.42;;;;;;;17.58;44.11;98406.39;1799501;79;21579;-66
2021/05/26 09:41:36;;;;;;;2.47;1.57;;;;;;;17.64;43.22;98400.24;1822196;78;21644;-68
2021/05/26 09:44:10;;;;;;;7.15;1.85;;;;;;;17.71;44.47;98393.17;1822124;78;21084;-65
2021/05/26 09:46:39;;;;;;;4.95;1.27;;;;;;;17.94;44.52;98394.25;1823482;78;21037;-66
2021/05/26 09:49:20;;;;;;;2.98;0.90;;;;;;;18.17;43.00;98389.55;1823898;78;20924;-70
2021/05/26 09:51:52;;;;;;;1.25;1.10;;;;;;;18.30;41.81;98394.50;1823723;78;21500;-66
2021/05/26 09:54:30;;;;;;;1.67;1.27;;;;;;;18.40;43.53;98390.81;1823866;78;20910;-71
2021/05/26 09:57:08;;;;;;;4.95;1.02;;;;;;;18.52;42.08;98396.89;1823710;78;20935;-68
2021/05/26 09:59:37;;;;;;;3.10;1.30;;;;;;;18.61;41.45;98392.73;1823798;78;21085;-68
2021/05/26 10:02:07;;;;;;;1.45;1.10;;;;;;;18.67;41.87;98400.92;1823727;78;20901;-67
2021/05/26 10:04:34;;;;;;;1.90;1.20;;;;;;;18.70;41.48;98393.48;1823764;78;21071;-68
2021/05/26 10:07:20;;;;;;;3.08;1.10;;;;;;;18.74;41.03;98386.25;1802271;78;21482;-69
2021/05/26 10:09:49;;;;;;;3.30;1.00;;;;;;;18.76;41.20;98376.66;1791291;80;20937;-66
2021/05/26 10:12:28;;;;;;;1.80;1.22;;;;;;;18.87;42.03;98376.45;1764585;80;20933;-69
2021/05/26 10:14:57;;;;;;;2.75;1.20;;;;;;;19.01;39.58;98385.64;1791100;80;21547;-65
2021/05/26 10:17:25;;;;;;;2.33;0.82;;;;;;;18.90;39.25;98388.00;1791275;80;21073;-66
2021/05/26 10:19:53;;;;;;;4.15;1.22;;;;;;;18.79;39.25;98389.56;1791247;80;20874;-69
2021/05/26 10:22:20;;;;;;;3.75;0.85;;;;;;;18.71;38.85;98385.55;1762803;80;21045;-68
2021/05/26 10:24:47;;;;;;;1.77;0.85;;;;;;;18.66;39.84;98385.75;1790377;80;21048;-66
2021/05/26 10:27:35;;;;;;;5.08;1.20;;;;;;;18.81;40.36;98373.73;1811166;78;21653;-72
2021/05/26 10:30:07;;;;;;;2.70;1.05;;;;;;;18.97;40.30;98371.97;1809947;78;20996;-69
2021/05/26 10:33:01;;;;;;;2.67;1.15;;;;;;;19.12;40.94;98384.87;1809535;77;20967;-63
2021/05/26 10:35:52;;;;;;;2.17;1.00;;;;;;;19.19;39.12;98379.48;1813191;79;21078;-66
2021/05/26 10:38:19;;;;;;;4.25;1.30;;;;;;;19.05;39.38;98392.78;1781366;79;21053;-67
2021/05/26 10:40:52;;;;;;;2.83;1.00;;;;;;;18.98;40.76;98385.75;1805874;79;20941;-68
2021/05/26 10:43:25;;;;;;;4.70;1.07;;;;;;;19.08;40.09;98375.83;1805675;79;21063;-65
2021/05/26 10:45:54;;;;;;;4.62;0.90;;;;;;;19.19;40.20;98365.91;1806083;79;21567;-66
2021/05/26 10:48:53;;;;;;;2.25;1.00;;;;;;;19.30;40.59;98371.91;1806115;79;20962;-65
2021/05/26 10:51:20;;;;;;;6.22;1.00;;;;;;;19.39;40.69;98361.77;1813163;78;21436;-65
2021/05/26 10:53:47;;;;;;;2.87;0.80;;;;;;;19.56;40.53;98359.39;1752770;81;21519;-66
2021/05/26 10:56:41;;;;;;;2.75;0.90;;;;;;;19.70;40.12;98360.64;1783598;80;21141;-68
2021/05/26 10:59:14;;;;;;;9.10;1.17;;;;;;;19.81;39.28;98355.53;1783560;80;20958;-68
2021/05/26 11:02:07;;;;;;;3.80;1.10;;;;;;;19.88;39.84;98353.03;1756162;80;21590;-66
2021/05/26 11:04:36;;;;;;;5.67;1.15;;;;;;;19.96;38.11;98360.28;1733218;80;21124;-69
2021/05/26 11:07:21;;;;;;;1.40;0.80;;;;;;;19.98;39.83;98356.65;1742325;81;21125;-66
2021/05/26 11:10:05;;;;;;;4.58;1.00;;;;;;;20.04;36.98;98360.73;1747498;81;21045;-67
2021/05/26 11:13:00;;;;;;;3.37;0.88;;;;;;;19.95;38.59;98349.17;1746962;81;21049;-70
2021/05/26 11:15:44;;;;;;;2.65;0.95;;;;;;;20.02;37.71;98351.33;1745397;81;21685;-65
2021/05/26 11:18:16;;;;;;;2.27;0.90;;;;;;;20.04;37.18;98347.70;1743452;81;21187;-66
2021/05/26 11:20:42;;;;;;;1.65;0.70;;;;;;;20.01;36.05;98343.73;1746452;81;21559;-66
2021/05/26 11:23:12;;;;;;;5.78;1.00;;;;;;;19.94;36.56;98341.36;1751803;81;21567;-66
2021/05/26 11:25:54;;;;;;;6.40;0.90;;;;;;;19.98;37.01;98338.98;1736134;82;20950;-68
2021/05/26 11:28:33;;;;;;;3.67;0.90;;;;;;;20.13;37.74;98353.23;1733288;82;21032;-63
2021/05/26 11:31:04;;;;;;;7.97;1.00;;;;;;;20.35;35.84;98343.77;1722222;83;21233;-64
2021/05/26 11:33:39;;;;;;;4.33;0.88;;;;;;;20.45;35.87;98338.64;1722387;83;21491;-67
2021/05/26 11:36:05;;;;;;;2.35;0.72;;;;;;;20.70;36.42;98331.74;1770751;80;21047;-66
2021/05/26 11:38:34;;;;;;;3.17;0.80;;;;;;;21.06;36.36;98328.83;1782636;79;20875;-68
2021/05/26 11:41:16;;;;;;;2.10;0.70;;;;;;;21.36;33.52;98324.52;1803236;79;21611;-67
2021/05/26 11:43:47;;;;;;;1.40;0.68;;;;;;;21.44;33.12;98323.56;1785898;79;20899;-70
2021/05/26 11:46:24;;;;;;;1.60;0.70;;;;;;;21.53;33.46;98324.73;1803313;79;20894;-67
2021/05/26 11:48:54;;;;;;;3.80;0.80;;;;;;;21.69;34.55;98327.66;1803596;79;21137;-67
2021/05/26 11:51:32;;;;;;;2.55;0.70;;;;;;;21.87;32.75;98323.22;1803388;79;20918;-65
2021/05/26 11:53:58;;;;;;;3.72;0.88;;;;;;;21.95;32.17;98319.52;1803207;79;21448;-69
2021/05/26 11:56:26;;;;;;;1.72;0.88;;;;;;;22.05;32.68;98317.00;1802851;79;21093;-65
2021/05/26 11:58:54;;;;;;;3.37;0.80;;;;;;;22.31;32.83;98316.37;1803176;79;20882;-62
2021/05/26 12:01:29;;;;;;;1.62;0.62;;;;;;;22.52;31.27;98311.34;1794365;78;21064;-65
2021/05/26 12:03:57;;;;;;;0.95;0.50;;;;;;;22.60;30.78;98314.43;1778627;79;20923;-64
2021/05/26 12:06:26;;;;;;;2.90;0.60;;;;;;;22.62;30.49;98316.25;1799216;79;21490;-64
2021/05/26 12:08:54;;;;;;;2.60;0.85;;;;;;;22.45;31.09;98312.56;1731159;83;20911;-63
2021/05/26 12:11:24;;;;;;;2.50;0.70;;;;;;;22.25;31.02;98319.18;1799245;79;20993;-63
2021/05/26 12:13:52;;;;;;;4.42;0.70;;;;;;;22.09;32.19;98313.00;1761563;81;22235;-65
2021/05/26 12:16:21;;;;;;;2.17;0.70;;;;;;;22.24;32.46;98305.31;1799070;79;21489;-68
2021/05/26 12:18:55;;;;;;;2.58;0.80;;;;;;;22.51;32.19;98302.95;1799313;79;21488;-66
2021/05/26 12:21:23;;;;;;;2.08;0.95;;;;;;;22.88;32.60;98298.61;1798946;79;20950;-66
2021/05/26 12:24:06;;;;;;;1.87;0.90;;;;;;;23.24;31.20;98304.67;1799292;79;20867;-67
2021/05/26 12:26:36;;;;;;;2.75;1.07;;;;;;;23.42;29.40;98296.20;1731229;83;21080;-65
2021/05/26 12:29:09;;;;;;;0.98;0.50;;;;;;;23.55;28.84;98301.70;1799176;79;21587;-66
2021/05/26 12:31:35;;;;;;;1.80;0.50;;;;;;;23.71;27.82;98295.49;1731144;82;20931;-65
2021/05/26 12:34:15;;;;;;;1.27;0.60;;;;;;;23.79;26.79;98296.58;1731311;83;21346;-67
2021/05/26 12:36:52;;;;;;;0.90;0.50;;;;;;;23.73;26.87;98288.50;1731335;82;20994;-68
2021/05/26 12:39:21;;;;;;;1.65;0.60;;;;;;;23.76;27.72;98291.08;1731225;82;21123;-64
2021/05/26 12:41:51;;;;;;;2.12;0.60;;;;;;;23.81;27.04;98275.72;1731247;83;20935;-65
2021/05/26 12:44:26;;;;;;;2.00;0.60;;;;;;;23.87;25.44;98277.53;1799089;79;20934;-67
2021/05/26 12:46:55;;;;;;;2.25;0.50;;;;;;;23.82;26.48;98282.75;1799249;79;20911;-66
2021/05/26 12:49:36;;;;;;;1.30;0.50;;;;;;;23.91;25.70;98284.63;1799372;79;20934;-66
2021/05/26 12:52:09;;;;;;;4.78;0.70;;;;;;;23.99;25.21;98286.31;1799240;79;21084;-63
2021/05/26 12:54:48;;;;;;;2.87;0.42;;;;;;;24.03;25.01;98294.55;1799242;79;20914;-65
2021/05/26 12:57:19;;;;;;;0.85;0.47;;;;;;;24.07;23.84;98281.16;1730277;83;21560;-66
2021/05/26 12:59:55;;;;;;;1.25;0.50;;;;;;;24.11;24.41;98284.74;1798456;79;21144;-67
2021/05/26 13:02:34;;;;;;;2.33;0.45;;;;;;;24.14;25.27;98278.51;1797260;79;21500;-69
2021/05/26 13:05:00;;;;;;;0.60;0.40;;;;;;;24.27;25.31;98283.97;1729124;83;21117;-63
2021/05/26 13:07:40;;;;;;;1.07;0.45;;;;;;;24.36;24.61;98285.83;1729035;82;21579;-67
2021/05/26 13:10:24;;;;;;;0.98;0.50;;;;;;;24.38;23.42;98279.39;1748559;82;21109;-63
2021/05/26 13:12:55;;;;;;;0.90;0.40;;;;;;;24.19;22.92;98275.45;1735294;82;21614;-68
2021/05/26 13:15:37;;;;;;;1.05;0.50;;;;;;;24.12;23.84;98263.65;1731297;82;21105;-65
2021/05/26 13:18:05;;;;;;;0.55;0.47;;;;;;;24.26;24.15;98260.48;1749784;82;21551;-67
2021/05/26 13:20:38;;;;;;;1.35;0.50;;;;;;;24.52;24.23;98267.05;1750449;82;21038;-66
2021/05/26 13:23:06;;;;;;;3.77;0.50;;;;;;;24.84;24.64;98261.33;1733187;82;21018;-70
2021/05/26 13:25:35;;;;;;;1.10;0.53;;;;;;;25.06;24.57;98263.11;1750884;82;21520;-67
2021/05/26 13:28:12;;;;;;;1.55;0.53;;;;;;;25.24;24.28;98258.55;1733233;82;21094;-65
2021/05/26 13:30:40;;;;;;;2.00;0.40;;;;;;;25.41;23.39;98251.05;1748990;81;21128;-67
2021/05/26 13:33:08;;;;;;;1.75;0.40;;;;;;;25.42;23.84;98247.70;1731654;82;21042;-69
